createdAt,value
2022-11-24T00:01:32.714Z,65.43
2022-11-24T00:04:04.458Z,59.22
2022-11-24T00:06:37.320Z,60.97
2022-11-24T00:09:07.622Z,48.17
2022-11-24T00:11:38.749Z,54.50
2022-11-24T00:14:09.061Z,57.13
2022-11-24T00:16:40.310Z,65.40
2022-11-24T00:19:14.565Z,62.40
2022-11-24T00:21:49.829Z,67.50
2022-11-24T00:24:21.407Z,67.93
2022-11-24T00:26:51.598Z,52.55
2022-11-24T00:29:20.456Z,58.25
2022-11-24T00:31:50.596Z,59.20
2022-11-24T00:34:19.471Z,52.03
2022-11-24T00:36:48.438Z,57.30
2022-11-24T00:39:18.583Z,60.00
2022-11-24T00:41:47.427Z,68.47
2022-11-24T00:44:16.497Z,61.20
2022-11-24T00:46:45.656Z,57.70
2022-11-24T00:49:16.044Z,55.38
2022-11-24T00:51:47.145Z,52.00
2022-11-24T00:54:18.402Z,62.58
2022-11-24T00:56:47.417Z,84.40
2022-11-24T00:59:16.421Z,76.35
2022-11-24T01:01:45.396Z,74.32
2022-11-24T01:04:22.792Z,52.50
2022-11-24T01:06:53.280Z,70.60
2022-11-24T01:09:25.589Z,84.57
2022-11-24T01:12:04.335Z,60.28
2022-11-24T01:14:34.719Z,56.10
2022-11-24T01:17:04.260Z,54.28
2022-11-24T01:19:34.733Z,58.45
2022-11-24T01:22:03.528Z,58.53
2022-11-24T01:24:32.686Z,63.83
2022-11-24T01:27:01.694Z,58.05
2022-11-24T01:29:30.612Z,64.70
2022-11-24T01:31:59.298Z,66.90
2022-11-24T01:34:28.443Z,57.00
2022-11-24T01:37:00.320Z,53.35
2022-11-24T01:39:29.395Z,53.42
2022-11-24T01:42:01.963Z,53.70
2022-11-24T01:44:32.990Z,67.50
2022-11-24T01:47:21.170Z,64.03
2022-11-24T01:49:55.594Z,49.75
2022-11-24T01:52:32.390Z,71.85
2022-11-24T01:55:08.162Z,58.58
2022-11-24T01:57:44.307Z,48.17
2022-11-24T02:00:16.477Z,65.65
2022-11-24T02:02:47.123Z,55.33
2022-11-24T02:05:22.832Z,44.83
2022-11-24T02:07:57.257Z,57.65
2022-11-24T02:10:26.420Z,57.00
2022-11-24T02:13:00.740Z,58.88
2022-11-24T02:15:30.912Z,58.47
2022-11-24T02:18:00.877Z,58.75
2022-11-24T02:20:29.465Z,62.80
2022-11-24T02:23:12.119Z,54.97
2022-11-24T02:25:57.602Z,62.05
2022-11-24T02:28:34.032Z,50.22
2022-11-24T02:31:06.848Z,52.50
2022-11-24T02:33:38.795Z,64.32
2022-11-24T02:36:10.627Z,53.45
2022-11-24T02:38:40.689Z,50.70
2022-11-24T02:45:07.123Z,50.60
2022-11-24T02:47:37.843Z,42.38
2022-11-24T02:50:09.709Z,65.07
2022-11-24T02:52:40.719Z,50.55
2022-11-24T02:55:11.832Z,44.55
2022-11-24T02:57:42.263Z,50.75
2022-11-24T03:00:15.604Z,57.50
2022-11-24T03:02:49.008Z,56.72
2022-11-24T03:05:20.245Z,49.20
2022-11-24T03:07:50.631Z,48.53
2022-11-24T03:10:21.503Z,48.42
2022-11-24T03:12:51.681Z,45.72
2022-11-24T03:15:24.897Z,53.45
2022-11-24T03:18:00.760Z,51.22
2022-11-24T03:20:32.236Z,41.65
2022-11-24T03:23:03.180Z,52.13
2022-11-24T03:25:33.201Z,48.70
2022-11-24T03:28:03.249Z,50.38
2022-11-24T03:30:35.074Z,53.88
2022-11-24T03:33:07.770Z,58.33
2022-11-24T03:35:38.919Z,57.17
2022-11-24T03:38:09.393Z,53.40
2022-11-24T03:40:39.953Z,59.47
2022-11-24T03:43:10.237Z,49.08
2022-11-24T03:45:46.317Z,50.85
2022-11-24T03:48:18.538Z,43.03
2022-11-24T03:50:57.740Z,38.15
2022-11-24T03:53:30.433Z,44.25
2022-11-24T03:56:02.382Z,47.80
2022-11-24T03:58:33.882Z,64.32
2022-11-24T04:01:06.264Z,51.05
2022-11-24T04:03:36.766Z,57.92
2022-11-24T04:06:07.591Z,47.95
2022-11-24T04:08:37.900Z,52.30
2022-11-24T04:11:09.299Z,41.35
2022-11-24T04:13:40.576Z,46.60
2022-11-24T04:16:12.500Z,48.30
2022-11-24T04:18:44.052Z,41.58
2022-11-24T04:21:17.470Z,41.00
2022-11-24T04:23:54.671Z,46.15
2022-11-24T04:26:28.760Z,50.47
2022-11-24T04:28:59.089Z,47.33
2022-11-24T04:31:31.848Z,58.08
2022-11-24T04:34:04.009Z,60.80
2022-11-24T04:36:34.695Z,47.38
2022-11-24T04:39:24.477Z,45.88
2022-11-24T04:41:56.788Z,53.30
2022-11-24T04:44:30.217Z,61.67
2022-11-24T04:47:05.248Z,36.63
2022-11-24T04:49:36.170Z,44.72
2022-11-24T04:52:07.127Z,45.60
2022-11-24T04:54:37.850Z,61.10
2022-11-24T04:57:09.110Z,39.65
2022-11-24T04:59:39.919Z,46.88
2022-11-24T05:02:12.999Z,44.05
2022-11-24T05:04:44.065Z,52.35
2022-11-24T05:07:18.335Z,59.95
2022-11-24T05:10:06.533Z,47.65
2022-11-24T05:12:41.150Z,42.47
2022-11-24T05:15:18.391Z,45.60
2022-11-24T05:17:50.700Z,68.88
2022-11-24T05:20:22.149Z,46.70
2022-11-24T05:22:53.151Z,47.13
2022-11-24T05:25:23.742Z,42.33
2022-11-24T05:27:54.304Z,32.78
2022-11-24T05:30:25.114Z,34.85
2022-11-24T05:32:57.985Z,49.03
2022-11-24T05:35:28.299Z,45.88
2022-11-24T05:38:03.948Z,45.15
2022-11-24T05:40:35.195Z,44.50
2022-11-24T05:43:06.185Z,37.70
2022-11-24T05:45:36.669Z,32.25
2022-11-24T05:48:16.930Z,40.17
2022-11-24T05:50:48.193Z,44.40
2022-11-24T05:53:19.281Z,42.75
2022-11-24T05:55:50.133Z,39.63
2022-11-24T05:58:21.638Z,35.70
2022-11-24T06:00:52.646Z,38.58
2022-11-24T06:03:25.538Z,57.80
2022-11-24T06:05:56.191Z,50.63
2022-11-24T06:08:30.851Z,44.20
2022-11-24T06:11:17.820Z,46.17
2022-11-24T06:13:50.911Z,47.25
2022-11-24T06:16:23.403Z,43.83
2022-11-24T06:18:58.137Z,49.55
2022-11-24T06:21:28.941Z,49.83
2022-11-24T06:23:59.875Z,48.40
2022-11-24T06:26:30.440Z,35.10
2022-11-24T06:29:00.964Z,38.55
2022-11-24T06:31:32.397Z,53.20
2022-11-24T06:34:08.082Z,38.90
2022-11-24T06:36:42.172Z,46.97
2022-11-24T06:39:13.163Z,52.72
2022-11-24T06:41:43.374Z,31.65
2022-11-24T06:44:13.916Z,47.80
2022-11-24T06:46:43.803Z,37.75
2022-11-24T06:49:15.943Z,37.53
2022-11-24T06:51:46.910Z,41.25
2022-11-24T06:54:22.996Z,55.03
2022-11-24T06:56:58.816Z,40.75
2022-11-24T06:59:30.246Z,45.47
2022-11-24T07:02:01.847Z,34.22
2022-11-24T07:04:34.570Z,45.28
2022-11-24T07:07:06.111Z,38.08
2022-11-24T07:09:39.381Z,42.35
2022-11-24T07:12:10.364Z,37.10
2022-11-24T07:14:44.026Z,33.65
2022-11-24T07:17:15.104Z,39.58
2022-11-24T07:19:47.405Z,35.47
2022-11-24T07:22:18.214Z,38.63
2022-11-24T07:24:49.542Z,43.42
2022-11-24T07:27:20.089Z,32.42
2022-11-24T07:29:50.688Z,41.40
2022-11-24T07:32:21.844Z,42.90
2022-11-24T07:34:53.452Z,40.80
2022-11-24T07:37:29.658Z,45.60
2022-11-24T07:40:01.387Z,41.72
2022-11-24T07:42:31.504Z,49.42
2022-11-24T07:45:01.749Z,47.67
2022-11-24T07:47:32.252Z,52.47
2022-11-24T07:50:04.613Z,46.45
2022-11-24T07:52:35.090Z,48.30
2022-11-24T07:55:06.790Z,33.13
2022-11-24T07:57:37.609Z,51.15
2022-11-24T08:00:09.438Z,47.22
2022-11-24T08:02:39.456Z,33.00
2022-11-24T08:05:14.989Z,35.58
2022-11-24T08:07:45.555Z,35.90
2022-11-24T08:10:15.942Z,42.92
2022-11-24T08:12:46.611Z,37.55
2022-11-24T08:15:17.290Z,46.78
2022-11-24T08:17:47.474Z,37.30
2022-11-24T08:20:20.443Z,34.78
2022-11-24T08:25:35.799Z,31.67
2022-11-24T08:28:06.428Z,34.03
2022-11-24T08:30:35.157Z,40.47
2022-11-24T08:33:04.026Z,41.40
2022-11-24T08:35:38.136Z,36.78
2022-11-24T08:38:08.071Z,32.70
2022-11-24T08:40:37.006Z,39.28
2022-11-24T08:43:06.104Z,41.83
2022-11-24T08:45:41.034Z,34.85
2022-11-24T08:48:11.057Z,31.67
2022-11-24T08:50:41.171Z,40.35
2022-11-24T08:53:09.951Z,34.88
2022-11-24T08:55:38.951Z,44.40
2022-11-24T08:58:07.946Z,39.88
2022-11-24T09:00:36.718Z,38.88
2022-11-24T09:03:32.189Z,32.00
2022-11-24T09:06:03.415Z,48.03
2022-11-24T09:08:33.375Z,49.05
2022-11-24T09:11:03.382Z,39.75
2022-11-24T09:13:32.243Z,35.85
2022-11-24T09:16:05.568Z,40.63
2022-11-24T09:18:34.739Z,32.85
2022-11-24T09:21:13.876Z,38.15
2022-11-24T09:23:43.795Z,44.60
2022-11-24T09:26:15.651Z,45.90
2022-11-24T09:28:45.796Z,33.00
2022-11-24T09:31:17.204Z,41.22
2022-11-24T09:33:47.431Z,40.78
2022-11-24T09:36:18.008Z,37.30
2022-11-24T09:38:47.048Z,43.83
2022-11-24T09:41:40.497Z,33.63
2022-11-24T09:44:42.582Z,25.38
2022-11-24T09:47:20.064Z,37.08
2022-11-24T09:49:54.619Z,37.58
2022-11-24T09:52:38.251Z,44.60
2022-11-24T09:55:18.163Z,38.33
2022-11-24T09:58:04.292Z,30.83
2022-11-24T10:00:34.898Z,35.58
2022-11-24T10:03:03.961Z,30.92
2022-11-24T10:05:37.419Z,48.47
2022-11-24T10:08:21.527Z,32.53
2022-11-24T10:10:57.811Z,37.55
2022-11-24T10:13:46.787Z,36.67
2022-11-24T10:16:24.388Z,31.08
2022-11-24T10:19:06.321Z,31.77
2022-11-24T10:21:52.931Z,38.50
2022-11-24T10:24:42.882Z,31.58
2022-11-24T10:27:18.743Z,35.63
2022-11-24T10:29:51.270Z,31.30
2022-11-24T10:32:23.142Z,32.80
2022-11-24T10:34:52.112Z,39.20
2022-11-24T10:37:27.611Z,36.95
2022-11-24T10:40:05.012Z,37.70
2022-11-24T10:42:37.089Z,31.85
2022-11-24T10:45:12.892Z,37.70
2022-11-24T10:47:43.589Z,41.30
2022-11-24T10:50:21.458Z,35.53
2022-11-24T10:52:54.591Z,39.22
2022-11-24T10:55:25.066Z,35.22
2022-11-24T10:57:54.137Z,43.25
2022-11-24T11:00:36.812Z,38.72
2022-11-24T11:03:20.823Z,37.42
2022-11-24T11:05:55.019Z,40.72
2022-11-24T11:08:30.343Z,35.60
2022-11-24T11:11:22.002Z,44.85
2022-11-24T11:14:01.614Z,30.15
2022-11-24T11:16:46.297Z,36.65
2022-11-24T11:19:55.407Z,40.28
2022-11-24T11:22:28.336Z,38.47
2022-11-24T11:25:23.193Z,35.20
2022-11-24T11:28:17.676Z,43.08
2022-11-24T11:31:18.040Z,34.25
2022-11-24T11:34:08.267Z,39.05
2022-11-24T11:36:45.074Z,38.90
2022-11-24T11:39:24.994Z,39.33
2022-11-24T11:42:02.769Z,32.80
2022-11-24T11:44:39.326Z,37.53
2022-11-24T11:47:19.820Z,41.47
2022-11-24T11:49:50.783Z,36.47
2022-11-24T11:52:57.725Z,40.33
2022-11-24T11:55:38.474Z,36.75
2022-11-24T11:58:35.420Z,38.45
2022-11-24T12:01:15.811Z,34.22
2022-11-24T12:04:05.812Z,34.83
2022-11-24T12:06:54.844Z,33.17
2022-11-24T12:09:36.020Z,34.95
2022-11-24T12:12:22.449Z,29.75
2022-11-24T12:15:10.491Z,28.88
2022-11-24T12:17:49.654Z,36.45
2022-11-24T12:20:34.917Z,39.63
2022-11-24T12:23:16.321Z,40.50
2022-11-24T12:25:52.593Z,29.17
2022-11-24T12:28:36.791Z,34.65
2022-11-24T12:31:08.939Z,38.33
2022-11-24T12:34:06.909Z,41.05
2022-11-24T12:36:53.195Z,33.83
2022-11-24T12:39:35.047Z,32.30
2022-11-24T12:42:14.206Z,34.85
2022-11-24T12:45:06.320Z,33.75
2022-11-24T12:47:56.741Z,33.35
2022-11-24T12:50:31.246Z,31.75
2022-11-24T12:53:06.827Z,36.47
2022-11-24T12:55:38.365Z,29.05
2022-11-24T12:58:15.787Z,37.33
2022-11-24T13:00:59.917Z,28.73
2022-11-24T13:03:45.847Z,29.45
2022-11-24T13:06:22.116Z,25.17
2022-11-24T13:08:51.970Z,39.35
2022-11-24T13:11:36.605Z,27.20
2022-11-24T13:14:13.014Z,29.27
2022-11-24T13:17:28.163Z,30.70
2022-11-24T13:19:41.858Z,32.90
2022-11-24T13:22:27.416Z,33.30
2022-11-24T13:25:18.590Z,29.38
2022-11-24T13:27:49.528Z,33.90
2022-11-24T13:30:55.891Z,34.72
2022-11-24T13:33:40.955Z,34.13
2022-11-24T13:36:34.963Z,27.70
2022-11-24T13:39:19.499Z,34.60
2022-11-24T13:42:41.858Z,33.00
2022-11-24T13:45:03.117Z,32.30
2022-11-24T13:47:37.853Z,30.70
2022-11-24T13:50:10.019Z,36.97
2022-11-24T13:52:45.097Z,43.65
2022-11-24T13:55:29.109Z,38.80
2022-11-24T13:58:03.666Z,34.78
2022-11-24T14:00:35.199Z,35.33
2022-11-24T14:03:14.334Z,36.20
2022-11-24T14:05:51.208Z,38.10
2022-11-24T14:08:25.025Z,40.28
2022-11-24T14:14:44.226Z,34.28
2022-11-24T14:17:20.448Z,39.60
2022-11-24T14:19:51.200Z,36.50
2022-11-24T14:22:23.241Z,30.88
2022-11-24T14:24:57.459Z,34.40
2022-11-24T14:27:31.762Z,41.28
2022-11-24T14:30:05.492Z,25.70
2022-11-24T14:32:35.140Z,30.13
2022-11-24T14:35:16.866Z,30.65
2022-11-24T14:37:46.401Z,33.45
2022-11-24T14:40:40.624Z,34.05
2022-11-24T14:43:20.315Z,31.02
2022-11-24T14:45:57.310Z,37.08
2022-11-24T14:48:29.718Z,34.63
2022-11-24T14:51:09.917Z,31.40
2022-11-24T14:53:44.081Z,27.38
2022-11-24T14:56:26.705Z,24.30
2022-11-24T14:58:59.248Z,30.55
2022-11-24T15:01:38.562Z,32.15
2022-11-24T15:04:26.989Z,30.73
2022-11-24T15:07:16.183Z,33.20
2022-11-24T15:09:53.230Z,24.92
2022-11-24T15:12:30.849Z,34.28
2022-11-24T15:15:04.792Z,32.30
2022-11-24T15:17:35.615Z,29.40
2022-11-24T15:20:12.245Z,29.67
2022-11-24T15:22:45.071Z,29.38
2022-11-24T15:25:30.743Z,27.13
2022-11-24T15:28:00.117Z,26.40
2022-11-24T15:30:37.036Z,33.58
2022-11-24T15:33:17.228Z,33.38
2022-11-24T15:35:48.517Z,38.08
2022-11-24T15:38:18.121Z,29.30
2022-11-24T15:40:49.955Z,31.88
2022-11-24T15:43:35.618Z,31.10
2022-11-24T15:46:06.619Z,27.27
2022-11-24T15:48:43.116Z,32.20
2022-11-24T15:51:18.943Z,28.00
2022-11-24T15:54:00.301Z,27.70
2022-11-24T15:56:35.324Z,32.00
2022-11-24T15:59:05.730Z,27.52
2022-11-24T16:01:36.883Z,36.88
2022-11-24T16:04:07.875Z,32.55
2022-11-24T16:06:37.733Z,39.40
2022-11-24T16:09:06.824Z,41.38
2022-11-24T16:11:35.802Z,36.88
2022-11-24T16:14:04.947Z,38.55
2022-11-24T16:16:34.477Z,38.42
2022-11-24T16:19:03.567Z,37.80
2022-11-24T16:21:36.571Z,39.22
2022-11-24T16:24:16.234Z,40.15
2022-11-24T16:26:45.348Z,37.30
2022-11-24T16:29:14.508Z,45.65
2022-11-24T16:31:44.679Z,35.10
2022-11-24T16:34:13.780Z,43.00
2022-11-24T16:36:47.382Z,46.08
2022-11-24T16:39:20.565Z,35.63
2022-11-24T16:41:52.623Z,44.70
2022-11-24T16:44:21.774Z,33.70
2022-11-24T16:46:51.018Z,36.95
2022-11-24T16:49:24.320Z,36.75
2022-11-24T16:52:01.280Z,40.78
2022-11-24T16:54:36.286Z,55.10
2022-11-24T16:57:14.535Z,36.75
2022-11-24T16:59:53.023Z,36.80
2022-11-24T17:02:30.726Z,36.92
2022-11-24T17:05:03.752Z,44.00
2022-11-24T17:07:48.150Z,40.83
2022-11-24T17:10:25.677Z,42.25
2022-11-24T17:12:54.789Z,38.53
2022-11-24T17:15:34.516Z,38.63
2022-11-24T17:18:23.975Z,36.10
2022-11-24T17:20:54.065Z,41.47
2022-11-24T17:23:24.508Z,36.72
2022-11-24T17:25:57.644Z,42.03
2022-11-24T17:28:28.512Z,37.08
2022-11-24T17:30:58.032Z,34.58
2022-11-24T17:33:39.521Z,47.17
2022-11-24T17:36:11.239Z,49.97
2022-11-24T17:38:43.510Z,40.75
2022-11-24T17:41:13.381Z,48.17
2022-11-24T17:43:50.474Z,45.92
2022-11-24T17:46:20.194Z,44.30
2022-11-24T17:48:49.916Z,40.83
2022-11-24T17:51:23.970Z,35.67
2022-11-24T17:53:57.390Z,34.55
2022-11-24T17:56:28.452Z,38.42
2022-11-24T17:59:01.433Z,34.90
2022-11-24T18:01:33.200Z,39.08
2022-11-24T18:04:02.222Z,33.85
2022-11-24T18:06:31.224Z,42.67
2022-11-24T18:09:01.552Z,42.38
2022-11-24T18:11:34.764Z,29.15
2022-11-24T18:14:05.854Z,42.45
2022-11-24T18:16:36.263Z,39.53
2022-11-24T18:19:10.870Z,42.05
2022-11-24T18:21:41.905Z,35.78
2022-11-24T18:24:17.525Z,36.28
2022-11-24T18:27:00.857Z,33.45
2022-11-24T18:29:30.082Z,38.58
2022-11-24T18:31:59.437Z,37.28
2022-11-24T18:34:30.196Z,34.50
2022-11-24T18:37:16.030Z,38.35
2022-11-24T18:39:57.804Z,36.85
2022-11-24T18:42:43.883Z,38.50
2022-11-24T18:45:31.489Z,36.17
2022-11-24T18:48:18.680Z,35.67
2022-11-24T18:51:06.569Z,37.90
2022-11-24T18:53:48.049Z,34.30
2022-11-24T18:56:23.179Z,36.03
2022-11-24T18:58:55.936Z,36.35
2022-11-24T19:01:29.877Z,35.28
2022-11-24T19:04:03.341Z,36.25
2022-11-24T19:06:37.593Z,39.90
2022-11-24T19:09:10.191Z,37.67
2022-11-24T19:11:45.308Z,39.63
2022-11-24T19:14:20.493Z,37.05
2022-11-24T19:16:54.064Z,32.40
2022-11-24T19:19:23.098Z,37.08
2022-11-24T19:21:57.474Z,32.97
2022-11-24T19:24:26.964Z,36.08
2022-11-24T19:27:02.561Z,31.48
2022-11-24T19:29:32.016Z,33.22
2022-11-24T19:32:04.176Z,36.08
2022-11-24T19:34:33.943Z,46.03
2022-11-24T19:37:13.293Z,40.30
2022-11-24T19:40:02.479Z,34.13
2022-11-24T19:42:48.322Z,39.85
2022-11-24T19:45:21.924Z,37.15
2022-11-24T19:48:23.785Z,37.00
2022-11-24T19:51:08.248Z,45.95
2022-11-24T19:53:57.901Z,50.30
2022-11-24T19:56:39.354Z,35.30
2022-11-24T19:59:21.034Z,40.83
2022-11-24T20:02:09.615Z,40.58
2022-11-24T20:04:42.865Z,35.50
2022-11-24T20:07:13.805Z,35.58
2022-11-24T20:09:43.377Z,40.35
2022-11-24T20:12:18.154Z,40.17
2022-11-24T20:18:02.986Z,43.60
2022-11-24T20:20:33.818Z,36.97
2022-11-24T20:23:03.954Z,35.13
2022-11-24T20:25:38.428Z,35.15
2022-11-24T20:28:09.351Z,39.22
2022-11-24T20:30:38.987Z,39.85
2022-11-24T20:33:10.035Z,32.63
2022-11-24T20:35:39.751Z,40.50
2022-11-24T20:38:09.589Z,35.58
2022-11-24T20:40:39.242Z,61.15
2022-11-24T20:43:09.078Z,48.03
2022-11-24T20:45:39.193Z,42.28
2022-11-24T20:48:10.344Z,48.50
2022-11-24T20:50:40.108Z,45.97
2022-11-24T20:53:10.457Z,43.60
2022-11-24T20:55:41.242Z,45.95
2022-11-24T20:58:11.880Z,52.72
2022-11-24T21:00:42.334Z,44.42
2022-11-24T21:03:13.793Z,41.05
2022-11-24T21:05:44.216Z,43.80
2022-11-24T21:08:14.076Z,39.65
2022-11-24T21:10:44.165Z,41.17
2022-11-24T21:13:14.247Z,43.03
2022-11-24T21:15:44.152Z,38.10
2022-11-24T21:18:15.124Z,42.72
2022-11-24T21:20:45.063Z,42.13
2022-11-24T21:23:16.555Z,37.15
2022-11-24T21:25:47.556Z,38.00
2022-11-24T21:28:22.167Z,45.80
2022-11-24T21:33:45.819Z,44.90
2022-11-24T21:36:18.502Z,42.75
2022-11-24T21:38:59.259Z,31.70
2022-11-24T21:41:39.626Z,44.08
2022-11-24T21:44:09.601Z,36.28
2022-11-24T21:46:52.691Z,42.72
2022-11-24T21:49:26.647Z,45.28
2022-11-24T21:52:01.170Z,44.47
2022-11-24T21:54:31.104Z,42.45
2022-11-24T21:57:01.239Z,48.60
2022-11-24T21:59:31.502Z,40.40
2022-11-24T22:02:11.667Z,46.35
2022-11-24T22:04:43.990Z,35.80
2022-11-24T22:07:16.047Z,41.13
2022-11-24T22:09:50.024Z,47.53
2022-11-24T22:12:19.918Z,44.75
2022-11-24T22:14:49.512Z,46.25
2022-11-24T22:17:19.370Z,55.63
2022-11-24T22:19:51.278Z,43.83
2022-11-24T22:22:21.221Z,53.70
2022-11-24T22:24:51.341Z,39.47
2022-11-24T22:27:21.334Z,42.00
2022-11-24T22:29:54.266Z,42.97
2022-11-24T22:32:28.500Z,41.55
2022-11-24T22:34:59.702Z,42.45
2022-11-24T22:37:32.591Z,36.15
2022-11-24T22:40:02.458Z,46.78
2022-11-24T22:42:35.084Z,39.70
2022-11-24T22:45:05.604Z,33.78
2022-11-24T22:47:35.599Z,37.47
2022-11-24T22:50:08.822Z,46.13
2022-11-24T22:52:40.759Z,33.97
2022-11-24T22:55:10.904Z,41.42
2022-11-24T22:57:39.737Z,37.80
2022-11-24T23:00:10.407Z,42.83
2022-11-24T23:02:39.211Z,42.25
2022-11-24T23:05:10.790Z,53.20
2022-11-24T23:07:39.905Z,39.08
2022-11-24T23:10:09.995Z,42.60
2022-11-24T23:12:39.113Z,39.33
2022-11-24T23:15:09.643Z,37.63
2022-11-24T23:17:38.425Z,38.88
2022-11-24T23:20:10.941Z,39.08
2022-11-24T23:22:39.739Z,33.80
2022-11-24T23:25:09.753Z,34.10
2022-11-24T23:27:38.581Z,36.15
2022-11-24T23:30:09.437Z,35.05
2022-11-24T23:32:38.251Z,39.60
2022-11-24T23:35:13.585Z,35.50
2022-11-24T23:38:06.482Z,34.90
2022-11-24T23:40:31.868Z,36.88
2022-11-24T23:43:00.654Z,46.55
2022-11-24T23:45:29.412Z,33.85
2022-11-24T23:47:58.288Z,37.38
2022-11-24T23:50:28.835Z,38.95
2022-11-24T23:52:57.617Z,44.38
2022-11-24T23:55:26.404Z,45.33
2022-11-24T23:57:55.219Z,45.05
